Accueil
METAR-TAF:

METAR-TAF

Aéroports :

Base aérienne de Chièvres

Chièvres, Belgique

latitude: 50-34N, longitude: 003-50E, altitude: 60 m

Observation

Le bulletin a été fait il y a 18 minutes, à 06:47 UTC
Vent 9 kt de sud-ouest
Température 5°C
Humidité 93%
Pression 1016 hPa
Visibilité 10 km ou plus

METAR: EBCV 170647Z AUTO 22009KT 9999 SCT021/// 05/04 Q1016 WHT

Heure: 08:05 (07:05 UTC)

Prévision

Le bulletin a été fait il y a 1 heure et 24 minutes, à 05:41 UTC
Prévision valable du 17 à 07 UTC au 17 à 16 UTC
Vent 9 kt de sud-ouest
Visibilité 10 km ou plus
Quelques nuages à une hauteur de 1500 ft
Nuages épars à une hauteur de 21000 ft
Temporairement
du 17 à 07 UTC au 17 à 13 UTC
Nuages épars à une hauteur de 1200 ft

TAF: EBCV 170541Z 1707/1716 23009KT 9999 FEW015 SCT210 TEMPO 1707/1713 SCT012 BY EBWM

Observations et prévisions météorologiques de plus de 4000 aéroports (messages METAR et TAF).

Les stations disponibles sont représentées par des disques jaunes et rouges sur la carte.

Passer la souris dessus pour voir le nom de la station.

Cliquer dessus pour voir les observations et prévisions météorologiques.

Pour changer de carte: cliquez sur les boutons verts avec une croix noire pour zoomer, sur le bouton vert avec un tiret pour effectuer un zoom arrière, ou sur les flèches vertes pour les cartes adjacentes.


METAR-TAF: